American Spirit — WDH4653 — position and weather

sailwx.info

Track history (hours):
 
Tides and Currents Weather Stations Pressure Air Temp Water Temp Dewpoint Dewpoint Depression Visibility Wind Speed Wind Dir Waves Ship Positions

American Spirit

Owner: American Commercial Lines LLC, Jeffersonville, IN. More information available from US FCC via Universal Licensing System and Coast Guard Vessel Documentation Center.

Last reported at 2017-Dec-11 14:53 UTC. Time now 2017-Dec-13 05:09 UTC.
Position N 29°46' W 095°06'.

Length 23 m; draft 2.7 m.

Type: Towing. MMSI: 367619920.

Date/timePositionNaut miles runAvg speedWind from/ knotsBaromVisibWave heightAir tempDewpointWater temp
2017-Dec-11 14:53N 29°46' W 095°06'1 2.0
2017-Dec-11 14:30N 29°46' W 095°05'2 3.4
2017-Dec-11 14:00N 29°45' W 095°04'3 6.0
2017-Dec-11 13:30N 29°43' W 095°01'3 5.8
2017-Dec-11 13:00N 29°41' W 094°59'3 6.5
2017-Dec-11 12:30N 29°38' W 094°58'3 6.3
2017-Dec-11 12:00N 29°35' W 094°56'3 5.9
2017-Dec-11 11:29N 29°33' W 094°54'  
2017-Dec-08 12:30N 30°04' W 093°22'0 0.0
2017-Dec-08 10:38N 30°04' W 093°22'0 0.0
2017-Dec-08 10:30N 30°04' W 093°22'0 0.0
2017-Dec-08 10:00N 30°04' W 093°22'0 0.0
2017-Dec-08 09:30N 30°04' W 093°22'0 0.0
2017-Dec-08 09:00N 30°04' W 093°22'0 0.0
2017-Dec-08 08:30N 30°04' W 093°22'0 0.0
2017-Dec-08 08:00N 30°04' W 093°22'0 0.0
2017-Dec-08 07:30N 30°04' W 093°22'0 0.0
2017-Dec-08 07:00N 30°04' W 093°22'0 0.0
2017-Dec-08 06:30N 30°04' W 093°22'0 0.0
2017-Dec-08 06:00N 30°04' W 093°22'0 0.0
2017-Dec-08 05:30N 30°04' W 093°22'0 0.0
2017-Dec-08 05:00N 30°04' W 093°22'0 0.0
2017-Dec-08 04:30N 30°04' W 093°22'0 0.0
2017-Dec-08 04:00N 30°04' W 093°22'0 0.0
2017-Dec-08 03:30N 30°04' W 093°22'0 0.0
2017-Dec-08 03:00N 30°04' W 093°22'0 0.7
2017-Dec-08 02:30N 30°04' W 093°22'0 0.7
2017-Dec-08 02:00N 30°04' W 093°21'0 0.0
2017-Dec-08 01:30N 30°04' W 093°21'0 0.0
2017-Dec-08 01:00N 30°04' W 093°21'0 0.0
2017-Dec-08 00:30N 30°04' W 093°21'0 0.0
2017-Dec-08 00:00N 30°04' W 093°21'0 0.0
2017-Dec-07 23:30N 30°04' W 093°21'0 0.0
2017-Dec-07 23:00N 30°04' W 093°21'0 0.0
2017-Dec-07 22:30N 30°04' W 093°21'0 0.0
2017-Dec-07 22:00N 30°04' W 093°21'0 0.0
2017-Dec-07 21:30N 30°04' W 093°21'0 0.0
2017-Dec-07 21:00N 30°04' W 093°21'0 0.0
2017-Dec-07 20:30N 30°04' W 093°21'0 0.0
2017-Dec-07 20:00N 30°04' W 093°21'0 0.0
2017-Dec-07 19:30N 30°04' W 093°21'0 0.0
2017-Dec-07 19:00N 30°04' W 093°21'0 0.0
2017-Dec-07 18:30N 30°04' W 093°21'0 0.0
2017-Dec-07 18:00N 30°04' W 093°21'0 0.0
2017-Dec-07 17:30N 30°04' W 093°21'0 0.0
2017-Dec-07 17:00N 30°04' W 093°21'0 0.0
2017-Dec-07 16:30N 30°04' W 093°21'0 0.0
2017-Dec-07 16:00N 30°04' W 093°21'0 0.0
2017-Dec-07 15:30N 30°04' W 093°21'0 0.0
2017-Dec-07 15:00N 30°04' W 093°21'0 0.0
2017-Dec-07 14:30N 30°04' W 093°21'0 0.0
2017-Dec-07 14:00N 30°04' W 093°21'0 0.0
2017-Dec-07 13:30N 30°04' W 093°21'0 0.0
2017-Dec-07 13:00N 30°04' W 093°21'0 0.0
2017-Dec-07 12:30N 30°04' W 093°21'0 0.0
2017-Dec-07 12:00N 30°04' W 093°21'0 0.0
2017-Dec-07 11:30N 30°04' W 093°21'0 0.0
2017-Dec-07 11:00N 30°04' W 093°21'0 0.0
2017-Dec-07 10:30N 30°04' W 093°21'0 0.0
2017-Dec-07 10:00N 30°04' W 093°21'0 0.0
2017-Dec-07 09:30N 30°04' W 093°21'0 0.0
2017-Dec-07 09:00N 30°04' W 093°21'0 0.0
2017-Dec-07 08:30N 30°04' W 093°21'0 0.0
2017-Dec-07 08:00N 30°04' W 093°21'0 0.0
2017-Dec-07 07:30N 30°04' W 093°21'0 0.0
2017-Dec-07 07:00N 30°04' W 093°21'0 0.0
2017-Dec-07 06:30N 30°04' W 093°21'0 0.0
2017-Dec-07 06:00N 30°04' W 093°21'0 0.0
2017-Dec-07 05:30N 30°04' W 093°21'0 0.0
2017-Dec-07 05:00N 30°04' W 093°21'0 0.0
2017-Dec-07 04:30N 30°04' W 093°21'0 0.0
2017-Dec-07 04:00N 30°04' W 093°21'0 0.0
2017-Dec-07 03:30N 30°04' W 093°21'0 0.0
2017-Dec-07 03:00N 30°04' W 093°21'0 0.0
2017-Dec-07 02:30N 30°04' W 093°21'0 0.0
2017-Dec-07 02:00N 30°04' W 093°21'0 0.0
2017-Dec-06 23:11N 30°04' W 093°21'0 0.0
2017-Dec-06 23:00N 30°04' W 093°21'0 0.0
2017-Dec-06 22:30N 30°04' W 093°21'0 0.0
2017-Dec-06 22:00N 30°04' W 093°21'0 0.0
2017-Dec-06 21:30N 30°04' W 093°21'0 0.0
2017-Dec-06 21:00N 30°04' W 093°21'  
2017-Dec-04 10:30N 30°11' W 093°19'0 0.0
2017-Dec-04 10:00N 30°11' W 093°19'0 0.0
2017-Dec-04 09:30N 30°11' W 093°19'0 0.0
2017-Dec-04 09:00N 30°11' W 093°19'0 0.0
2017-Dec-04 08:30N 30°11' W 093°19'0 0.0
2017-Dec-04 08:00N 30°11' W 093°19'0 0.0
2017-Dec-04 07:30N 30°11' W 093°19'0 0.0
2017-Dec-04 07:00N 30°11' W 093°19'0 0.0
2017-Dec-04 06:30N 30°11' W 093°19'0 0.0
2017-Dec-04 06:00N 30°11' W 093°19'0 0.0
2017-Dec-04 05:30N 30°11' W 093°19'0 0.0
2017-Dec-04 05:00N 30°11' W 093°19'0 0.0
2017-Dec-04 04:30N 30°11' W 093°19'0 0.0
2017-Dec-04 04:00N 30°11' W 093°19'0 0.0
2017-Dec-04 03:30N 30°11' W 093°19'0 0.0
2017-Dec-04 03:00N 30°11' W 093°19'0 0.0
2017-Dec-04 02:30N 30°11' W 093°19'0 0.0
2017-Dec-04 02:00N 30°11' W 093°19'0 0.0
2017-Dec-04 01:30N 30°11' W 093°19'0 0.0
2017-Dec-04 01:00N 30°11' W 093°19'0 0.0
2017-Dec-04 00:30N 30°11' W 093°19'0 0.0
2017-Dec-03 23:59N 30°11' W 093°19'1 1.4
2017-Dec-03 23:26N 30°10' W 093°19'1 1.3
2017-Dec-03 22:56N 30°11' W 093°19'0 0.2
2017-Dec-03 22:29N 30°11' W 093°19'0 0.0
2017-Dec-03 22:00N 30°11' W 093°19'0 0.0
2017-Dec-03 21:29N 30°11' W 093°19'0 0.0
2017-Dec-03 21:00N 30°11' W 093°19'0 0.0
2017-Dec-03 20:30N 30°11' W 093°19'0 0.0
2017-Dec-03 20:00N 30°11' W 093°19'0 0.0
2017-Dec-03 19:30N 30°11' W 093°19'0 0.0
2017-Dec-03 19:00N 30°11' W 093°19'0 0.1
2017-Dec-03 18:30N 30°11' W 093°19'0 0.2
2017-Dec-03 18:00N 30°11' W 093°19'0 0.1
2017-Dec-03 17:30N 30°11' W 093°19'2 3.2
2017-Dec-03 17:00N 30°10' W 093°19'2 3.9
2017-Dec-03 16:30N 30°08' W 093°20'2 4.3
2017-Dec-03 16:00N 30°05' W 093°20'2 3.7
2017-Dec-03 15:30N 30°04' W 093°21'1 2.4
2017-Dec-03 15:00N 30°04' W 093°22'0 0.0
2017-Dec-03 14:25N 30°04' W 093°22'0 0.0
2017-Dec-03 13:57N 30°04' W 093°22'0 0.0
2017-Dec-03 13:15N 30°04' W 093°22'0 0.0
2017-Dec-03 12:58N 30°04' W 093°22'0 0.0
2017-Dec-03 12:29N 30°04' W 093°22'0 0.0
2017-Dec-03 12:00N 30°04' W 093°22'0 0.0
2017-Dec-03 11:30N 30°04' W 093°22'0 0.0
2017-Dec-03 10:53N 30°04' W 093°22'0 0.0
2017-Dec-03 10:30N 30°04' W 093°22'0 0.0
2017-Dec-03 10:00N 30°04' W 093°22'0 0.0
2017-Dec-03 09:29N 30°04' W 093°22'0 0.0
2017-Dec-03 08:57N 30°04' W 093°22'0 0.0
2017-Dec-03 08:30N 30°04' W 093°22'0 0.0
2017-Dec-03 08:00N 30°04' W 093°22'0 0.0
2017-Dec-03 07:30N 30°04' W 093°22'0 0.0
2017-Dec-03 06:50N 30°04' W 093°22'0 0.0
2017-Dec-03 06:30N 30°04' W 093°22'0 0.0
2017-Dec-03 05:55N 30°04' W 093°22'0 0.0
2017-Dec-03 05:30N 30°04' W 093°22'0 0.0
2017-Dec-03 04:54N 30°04' W 093°22'0 0.0
2017-Dec-03 04:30N 30°04' W 093°22'0 0.0
2017-Dec-03 03:54N 30°04' W 093°22'0 0.0
2017-Dec-03 03:30N 30°04' W 093°22'0 0.0
2017-Dec-03 02:55N 30°04' W 093°22'0 0.0
2017-Dec-03 02:25N 30°04' W 093°22'0 0.0
2017-Dec-03 02:00N 30°04' W 093°22'0 0.0
2017-Dec-03 01:30N 30°04' W 093°22'0 0.0
2017-Dec-03 01:00N 30°04' W 093°22'0 0.0
2017-Dec-03 00:30N 30°04' W 093°22'0 0.0
2017-Dec-03 00:00N 30°04' W 093°22'0 0.0
2017-Dec-02 23:30N 30°04' W 093°22'0 0.0
2017-Dec-02 23:00N 30°04' W 093°22'0 0.0
2017-Dec-02 22:30N 30°04' W 093°22'0 0.0
2017-Dec-02 22:00N 30°04' W 093°22'0 0.0
2017-Dec-02 21:30N 30°04' W 093°22'0 0.0
2017-Dec-02 21:00N 30°04' W 093°22'0 0.0
2017-Dec-02 20:30N 30°04' W 093°22'0 0.0
2017-Dec-02 20:00N 30°04' W 093°22'0 0.0
2017-Dec-02 19:30N 30°04' W 093°22'0 0.0
2017-Dec-02 19:00N 30°04' W 093°22'0 0.0
2017-Dec-02 18:30N 30°04' W 093°22'0 0.0
2017-Dec-02 18:00N 30°04' W 093°22'0 0.0
2017-Dec-02 17:30N 30°04' W 093°22'0 0.0
2017-Dec-02 17:00N 30°04' W 093°22'0 0.0
2017-Dec-02 16:29N 30°04' W 093°22'0 0.5
2017-Dec-02 16:00N 30°04' W 093°22'0 0.0
2017-Dec-02 15:30N 30°04' W 093°22'0 0.5
2017-Dec-02 14:59N 30°04' W 093°22'0 0.0
2017-Dec-02 14:30N 30°04' W 093°22'0 0.0
2017-Dec-02 14:00N 30°04' W 093°22'0 0.0
2017-Dec-02 13:30N 30°04' W 093°22'0 0.0
2017-Dec-02 13:00N 30°04' W 093°22'0 0.0
2017-Dec-02 12:30N 30°04' W 093°22'0 0.0
2017-Dec-02 12:00N 30°04' W 093°22'0 0.0
2017-Dec-02 11:30N 30°04' W 093°22'0 0.0
2017-Dec-02 11:00N 30°04' W 093°22'0 0.0
2017-Dec-02 10:30N 30°04' W 093°22'0 0.0
2017-Dec-02 10:00N 30°04' W 093°22'0 0.0
2017-Dec-02 09:30N 30°04' W 093°22'0 0.0
2017-Dec-02 09:00N 30°04' W 093°22'0 0.0
2017-Dec-02 08:30N 30°04' W 093°22'0 0.0
2017-Dec-02 08:00N 30°04' W 093°22'0 0.0
2017-Dec-02 07:30N 30°04' W 093°22'0 0.0
2017-Dec-02 07:00N 30°04' W 093°22'0 0.0
2017-Dec-02 06:30N 30°04' W 093°22'0 0.0
2017-Dec-02 06:00N 30°04' W 093°22'0 0.0
2017-Dec-02 05:30N 30°04' W 093°22'0 0.0
2017-Dec-02 05:00N 30°04' W 093°22'0 0.0
2017-Dec-02 04:30N 30°04' W 093°22'0 0.0
2017-Dec-02 04:00N 30°04' W 093°22'0 0.0
2017-Dec-02 03:30N 30°04' W 093°22'0 0.0
2017-Dec-02 03:00N 30°04' W 093°22'0 0.0
2017-Dec-02 02:30N 30°04' W 093°22'0 0.0
2017-Dec-02 02:00N 30°04' W 093°22'0 0.0
2017-Dec-02 01:30N 30°04' W 093°22'0 0.0
2017-Dec-02 01:00N 30°04' W 093°22'0 0.0
2017-Dec-02 00:30N 30°04' W 093°22'0 0.0
2017-Dec-02 00:00N 30°04' W 093°22'0 0.1
2017-Dec-01 23:31N 30°04' W 093°22'0 0.0
2017-Dec-01 23:00N 30°04' W 093°22'0 0.0
2017-Dec-01 22:30N 30°04' W 093°22'0 0.0
2017-Dec-01 22:00N 30°04' W 093°22'0 0.0
2017-Dec-01 21:30N 30°04' W 093°22'0 0.0
2017-Dec-01 21:00N 30°04' W 093°22'0 0.0
2017-Dec-01 20:30N 30°04' W 093°22'0 0.0
2017-Dec-01 20:00N 30°04' W 093°22'0 0.0
2017-Dec-01 19:30N 30°04' W 093°22'0 0.0
2017-Dec-01 19:00N 30°04' W 093°22'0 0.0
2017-Dec-01 18:30N 30°04' W 093°22'0 0.0
2017-Dec-01 18:00N 30°04' W 093°22'0 0.0
2017-Dec-01 17:30N 30°04' W 093°22'0 0.0
2017-Dec-01 17:00N 30°04' W 093°22'0 0.0
2017-Dec-01 16:30N 30°04' W 093°22'0 0.0
2017-Dec-01 16:00N 30°04' W 093°22'0 0.0
2017-Dec-01 15:30N 30°04' W 093°22'0 0.0
2017-Dec-01 15:00N 30°04' W 093°22'  
Track history (hours):
 
Tides and Currents Weather Stations Pressure Air Temp Water Temp Dewpoint Dewpoint Depression Visibility Wind Speed Wind Dir Waves Ship Positions

American Spirit

Owner: American Commercial Lines LLC, Jeffersonville, IN. More information available from US FCC via Universal Licensing System and Coast Guard Vessel Documentation Center.

Last reported at 2017-Dec-11 14:53 UTC. Time now 2017-Dec-13 05:09 UTC.
Position N 29°46' W 095°06'.

Length 23 m; draft 2.7 m.

Type: Towing. MMSI: 367619920.

Date/timePositionNaut miles runAvg speedWind from/ knotsBaromVisibWave heightAir tempDewpointWater temp
2017-Dec-11 14:53N 29°46' W 095°06'1 2.0
2017-Dec-11 14:30N 29°46' W 095°05'2 3.4
2017-Dec-11 14:00N 29°45' W 095°04'3 6.0
2017-Dec-11 13:30N 29°43' W 095°01'3 5.8
2017-Dec-11 13:00N 29°41' W 094°59'3 6.5
2017-Dec-11 12:30N 29°38' W 094°58'3 6.3
2017-Dec-11 12:00N 29°35' W 094°56'3 5.9
2017-Dec-11 11:29N 29°33' W 094°54'  
2017-Dec-08 12:30N 30°04' W 093°22'0 0.0
2017-Dec-08 10:38N 30°04' W 093°22'0 0.0
2017-Dec-08 10:30N 30°04' W 093°22'0 0.0
2017-Dec-08 10:00N 30°04' W 093°22'0 0.0
2017-Dec-08 09:30N 30°04' W 093°22'0 0.0
2017-Dec-08 09:00N 30°04' W 093°22'0 0.0
2017-Dec-08 08:30N 30°04' W 093°22'0 0.0
2017-Dec-08 08:00N 30°04' W 093°22'0 0.0
2017-Dec-08 07:30N 30°04' W 093°22'0 0.0
2017-Dec-08 07:00N 30°04' W 093°22'0 0.0
2017-Dec-08 06:30N 30°04' W 093°22'0 0.0
2017-Dec-08 06:00N 30°04' W 093°22'0 0.0
2017-Dec-08 05:30N 30°04' W 093°22'0 0.0
2017-Dec-08 05:00N 30°04' W 093°22'0 0.0
2017-Dec-08 04:30N 30°04' W 093°22'0 0.0
2017-Dec-08 04:00N 30°04' W 093°22'0 0.0
2017-Dec-08 03:30N 30°04' W 093°22'0 0.0
2017-Dec-08 03:00N 30°04' W 093°22'0 0.7
2017-Dec-08 02:30N 30°04' W 093°22'0 0.7
2017-Dec-08 02:00N 30°04' W 093°21'0 0.0
2017-Dec-08 01:30N 30°04' W 093°21'0 0.0
2017-Dec-08 01:00N 30°04' W 093°21'0 0.0
2017-Dec-08 00:30N 30°04' W 093°21'0 0.0
2017-Dec-08 00:00N 30°04' W 093°21'0 0.0
2017-Dec-07 23:30N 30°04' W 093°21'0 0.0
2017-Dec-07 23:00N 30°04' W 093°21'0 0.0
2017-Dec-07 22:30N 30°04' W 093°21'0 0.0
2017-Dec-07 22:00N 30°04' W 093°21'0 0.0
2017-Dec-07 21:30N 30°04' W 093°21'0 0.0
2017-Dec-07 21:00N 30°04' W 093°21'0 0.0
2017-Dec-07 20:30N 30°04' W 093°21'0 0.0
2017-Dec-07 20:00N 30°04' W 093°21'0 0.0
2017-Dec-07 19:30N 30°04' W 093°21'0 0.0
2017-Dec-07 19:00N 30°04' W 093°21'0 0.0
2017-Dec-07 18:30N 30°04' W 093°21'0 0.0
2017-Dec-07 18:00N 30°04' W 093°21'0 0.0
2017-Dec-07 17:30N 30°04' W 093°21'0 0.0
2017-Dec-07 17:00N 30°04' W 093°21'0 0.0
2017-Dec-07 16:30N 30°04' W 093°21'0 0.0
2017-Dec-07 16:00N 30°04' W 093°21'0 0.0
2017-Dec-07 15:30N 30°04' W 093°21'0 0.0
2017-Dec-07 15:00N 30°04' W 093°21'0 0.0
2017-Dec-07 14:30N 30°04' W 093°21'0 0.0
2017-Dec-07 14:00N 30°04' W 093°21'0 0.0
2017-Dec-07 13:30N 30°04' W 093°21'0 0.0
2017-Dec-07 13:00N 30°04' W 093°21'0 0.0
2017-Dec-07 12:30N 30°04' W 093°21'0 0.0
2017-Dec-07 12:00N 30°04' W 093°21'0 0.0
2017-Dec-07 11:30N 30°04' W 093°21'0 0.0
2017-Dec-07 11:00N 30°04' W 093°21'0 0.0
2017-Dec-07 10:30N 30°04' W 093°21'0 0.0
2017-Dec-07 10:00N 30°04' W 093°21'0 0.0
2017-Dec-07 09:30N 30°04' W 093°21'0 0.0
2017-Dec-07 09:00N 30°04' W 093°21'0 0.0
2017-Dec-07 08:30N 30°04' W 093°21'0 0.0
2017-Dec-07 08:00N 30°04' W 093°21'0 0.0
2017-Dec-07 07:30N 30°04' W 093°21'0 0.0
2017-Dec-07 07:00N 30°04' W 093°21'0 0.0
2017-Dec-07 06:30N 30°04' W 093°21'0 0.0
2017-Dec-07 06:00N 30°04' W 093°21'0 0.0
2017-Dec-07 05:30N 30°04' W 093°21'0 0.0
2017-Dec-07 05:00N 30°04' W 093°21'0 0.0
2017-Dec-07 04:30N 30°04' W 093°21'0 0.0
2017-Dec-07 04:00N 30°04' W 093°21'0 0.0
2017-Dec-07 03:30N 30°04' W 093°21'0 0.0
2017-Dec-07 03:00N 30°04' W 093°21'0 0.0
2017-Dec-07 02:30N 30°04' W 093°21'0 0.0
2017-Dec-07 02:00N 30°04' W 093°21'0 0.0
2017-Dec-06 23:11N 30°04' W 093°21'0 0.0
2017-Dec-06 23:00N 30°04' W 093°21'0 0.0
2017-Dec-06 22:30N 30°04' W 093°21'0 0.0
2017-Dec-06 22:00N 30°04' W 093°21'0 0.0
2017-Dec-06 21:30N 30°04' W 093°21'0 0.0
2017-Dec-06 21:00N 30°04' W 093°21'  
2017-Dec-04 10:30N 30°11' W 093°19'0 0.0
2017-Dec-04 10:00N 30°11' W 093°19'0 0.0
2017-Dec-04 09:30N 30°11' W 093°19'0 0.0
2017-Dec-04 09:00N 30°11' W 093°19'0 0.0
2017-Dec-04 08:30N 30°11' W 093°19'0 0.0
2017-Dec-04 08:00N 30°11' W 093°19'0 0.0
2017-Dec-04 07:30N 30°11' W 093°19'0 0.0
2017-Dec-04 07:00N 30°11' W 093°19'0 0.0
2017-Dec-04 06:30N 30°11' W 093°19'0 0.0
2017-Dec-04 06:00N 30°11' W 093°19'0 0.0
2017-Dec-04 05:30N 30°11' W 093°19'0 0.0
2017-Dec-04 05:00N 30°11' W 093°19'0 0.0
2017-Dec-04 04:30N 30°11' W 093°19'0 0.0
2017-Dec-04 04:00N 30°11' W 093°19'0 0.0
2017-Dec-04 03:30N 30°11' W 093°19'0 0.0
2017-Dec-04 03:00N 30°11' W 093°19'0 0.0
2017-Dec-04 02:30N 30°11' W 093°19'0 0.0
2017-Dec-04 02:00N 30°11' W 093°19'0 0.0
2017-Dec-04 01:30N 30°11' W 093°19'0 0.0
2017-Dec-04 01:00N 30°11' W 093°19'0 0.0
2017-Dec-04 00:30N 30°11' W 093°19'0 0.0
2017-Dec-03 23:59N 30°11' W 093°19'1 1.4
2017-Dec-03 23:26N 30°10' W 093°19'1 1.3
2017-Dec-03 22:56N 30°11' W 093°19'0 0.2
2017-Dec-03 22:29N 30°11' W 093°19'0 0.0
2017-Dec-03 22:00N 30°11' W 093°19'0 0.0
2017-Dec-03 21:29N 30°11' W 093°19'0 0.0
2017-Dec-03 21:00N 30°11' W 093°19'0 0.0
2017-Dec-03 20:30N 30°11' W 093°19'0 0.0
2017-Dec-03 20:00N 30°11' W 093°19'0 0.0
2017-Dec-03 19:30N 30°11' W 093°19'0 0.0
2017-Dec-03 19:00N 30°11' W 093°19'0 0.1
2017-Dec-03 18:30N 30°11' W 093°19'0 0.2
2017-Dec-03 18:00N 30°11' W 093°19'0 0.1
2017-Dec-03 17:30N 30°11' W 093°19'2 3.2
2017-Dec-03 17:00N 30°10' W 093°19'2 3.9
2017-Dec-03 16:30N 30°08' W 093°20'2 4.3
2017-Dec-03 16:00N 30°05' W 093°20'2 3.7
2017-Dec-03 15:30N 30°04' W 093°21'1 2.4
2017-Dec-03 15:00N 30°04' W 093°22'0 0.0
2017-Dec-03 14:25N 30°04' W 093°22'0 0.0
2017-Dec-03 13:57N 30°04' W 093°22'0 0.0
2017-Dec-03 13:15N 30°04' W 093°22'0 0.0
2017-Dec-03 12:58N 30°04' W 093°22'0 0.0
2017-Dec-03 12:29N 30°04' W 093°22'0 0.0
2017-Dec-03 12:00N 30°04' W 093°22'0 0.0
2017-Dec-03 11:30N 30°04' W 093°22'0 0.0
2017-Dec-03 10:53N 30°04' W 093°22'0 0.0
2017-Dec-03 10:30N 30°04' W 093°22'0 0.0
2017-Dec-03 10:00N 30°04' W 093°22'0 0.0
2017-Dec-03 09:29N 30°04' W 093°22'0 0.0
2017-Dec-03 08:57N 30°04' W 093°22'0 0.0
2017-Dec-03 08:30N 30°04' W 093°22'0 0.0
2017-Dec-03 08:00N 30°04' W 093°22'0 0.0
2017-Dec-03 07:30N 30°04' W 093°22'0 0.0
2017-Dec-03 06:50N 30°04' W 093°22'0 0.0
2017-Dec-03 06:30N 30°04' W 093°22'0 0.0
2017-Dec-03 05:55N 30°04' W 093°22'0 0.0
2017-Dec-03 05:30N 30°04' W 093°22'0 0.0
2017-Dec-03 04:54N 30°04' W 093°22'0 0.0
2017-Dec-03 04:30N 30°04' W 093°22'0 0.0
2017-Dec-03 03:54N 30°04' W 093°22'0 0.0
2017-Dec-03 03:30N 30°04' W 093°22'0 0.0
2017-Dec-03 02:55N 30°04' W 093°22'0 0.0
2017-Dec-03 02:25N 30°04' W 093°22'0 0.0
2017-Dec-03 02:00N 30°04' W 093°22'0 0.0
2017-Dec-03 01:30N 30°04' W 093°22'0 0.0
2017-Dec-03 01:00N 30°04' W 093°22'0 0.0
2017-Dec-03 00:30N 30°04' W 093°22'0 0.0
2017-Dec-03 00:00N 30°04' W 093°22'0 0.0
2017-Dec-02 23:30N 30°04' W 093°22'0 0.0
2017-Dec-02 23:00N 30°04' W 093°22'0 0.0
2017-Dec-02 22:30N 30°04' W 093°22'0 0.0
2017-Dec-02 22:00N 30°04' W 093°22'0 0.0
2017-Dec-02 21:30N 30°04' W 093°22'0 0.0
2017-Dec-02 21:00N 30°04' W 093°22'0 0.0
2017-Dec-02 20:30N 30°04' W 093°22'0 0.0
2017-Dec-02 20:00N 30°04' W 093°22'0 0.0
2017-Dec-02 19:30N 30°04' W 093°22'0 0.0
2017-Dec-02 19:00N 30°04' W 093°22'0 0.0
2017-Dec-02 18:30N 30°04' W 093°22'0 0.0
2017-Dec-02 18:00N 30°04' W 093°22'0 0.0
2017-Dec-02 17:30N 30°04' W 093°22'0 0.0
2017-Dec-02 17:00N 30°04' W 093°22'0 0.0
2017-Dec-02 16:29N 30°04' W 093°22'0 0.5
2017-Dec-02 16:00N 30°04' W 093°22'0 0.0
2017-Dec-02 15:30N 30°04' W 093°22'0 0.5
2017-Dec-02 14:59N 30°04' W 093°22'0 0.0
2017-Dec-02 14:30N 30°04' W 093°22'0 0.0
2017-Dec-02 14:00N 30°04' W 093°22'0 0.0
2017-Dec-02 13:30N 30°04' W 093°22'0 0.0
2017-Dec-02 13:00N 30°04' W 093°22'0 0.0
2017-Dec-02 12:30N 30°04' W 093°22'0 0.0
2017-Dec-02 12:00N 30°04' W 093°22'0 0.0
2017-Dec-02 11:30N 30°04' W 093°22'0 0.0
2017-Dec-02 11:00N 30°04' W 093°22'0 0.0
2017-Dec-02 10:30N 30°04' W 093°22'0 0.0
2017-Dec-02 10:00N 30°04' W 093°22'0 0.0
2017-Dec-02 09:30N 30°04' W 093°22'0 0.0
2017-Dec-02 09:00N 30°04' W 093°22'0 0.0
2017-Dec-02 08:30N 30°04' W 093°22'0 0.0
2017-Dec-02 08:00N 30°04' W 093°22'0 0.0
2017-Dec-02 07:30N 30°04' W 093°22'0 0.0
2017-Dec-02 07:00N 30°04' W 093°22'0 0.0
2017-Dec-02 06:30N 30°04' W 093°22'0 0.0
2017-Dec-02 06:00N 30°04' W 093°22'0 0.0
2017-Dec-02 05:30N 30°04' W 093°22'0 0.0
2017-Dec-02 05:00N 30°04' W 093°22'0 0.0
2017-Dec-02 04:30N 30°04' W 093°22'0 0.0
2017-Dec-02 04:00N 30°04' W 093°22'0 0.0
2017-Dec-02 03:30N 30°04' W 093°22'0 0.0
2017-Dec-02 03:00N 30°04' W 093°22'0 0.0
2017-Dec-02 02:30N 30°04' W 093°22'0 0.0
2017-Dec-02 02:00N 30°04' W 093°22'0 0.0
2017-Dec-02 01:30N 30°04' W 093°22'0 0.0
2017-Dec-02 01:00N 30°04' W 093°22'0 0.0
2017-Dec-02 00:30N 30°04' W 093°22'0 0.0
2017-Dec-02 00:00N 30°04' W 093°22'0 0.1
2017-Dec-01 23:31N 30°04' W 093°22'0 0.0
2017-Dec-01 23:00N 30°04' W 093°22'0 0.0
2017-Dec-01 22:30N 30°04' W 093°22'0 0.0
2017-Dec-01 22:00N 30°04' W 093°22'0 0.0
2017-Dec-01 21:30N 30°04' W 093°22'0 0.0
2017-Dec-01 21:00N 30°04' W 093°22'0 0.0
2017-Dec-01 20:30N 30°04' W 093°22'0 0.0
2017-Dec-01 20:00N 30°04' W 093°22'0 0.0
2017-Dec-01 19:30N 30°04' W 093°22'0 0.0
2017-Dec-01 19:00N 30°04' W 093°22'0 0.0
2017-Dec-01 18:30N 30°04' W 093°22'0 0.0
2017-Dec-01 18:00N 30°04' W 093°22'0 0.0
2017-Dec-01 17:30N 30°04' W 093°22'0 0.0
2017-Dec-01 17:00N 30°04' W 093°22'0 0.0
2017-Dec-01 16:30N 30°04' W 093°22'0 0.0
2017-Dec-01 16:00N 30°04' W 093°22'0 0.0
2017-Dec-01 15:30N 30°04' W 093°22'0 0.0
2017-Dec-01 15:00N 30°04' W 093°22'  

Dump ship's entire track history